Main page
METAR-TAF:

METAR-TAF

Airports :

Valladolid, Spain

Valladolid Airport

latitude: 41-43N, longitude: 004-51W, elevation: 849 m

Current weather observation

The report was made 21 minutes ago, at 07:00 UTC
Wind 3 kt from the Southeast
Temperature -1°C
Humidity 74%
Pressure 1016 hPa
Visibility 10 km or more
no clouds below 1500 m and no cumulonimbus

METAR: LEVD 220700Z 13003KT CAVOK M01/M05 Q1016

Time: 08:21 (07:21 UTC)

Forecast

The report was made 2 hours and 21 minutes ago, at 05:00 UTC
Forecast valid from 22 at 06 UTC to 23 at 06 UTC
Wind 5 kt from variable directions
Visibility 10 km or more
no clouds below 1500 m and no cumulonimbus
Becoming
from 22 at 14 UTC to 22 at 16 UTC
Wind 10 kt from the Southwest with gusts up to 25 kt

TAF: LEVD 220500Z 2206/2306 VRB05KT CAVOK TX17/2215Z TNM01/2206Z BECMG 2214/2216 23010G25KT

Weather observations and forecasts of more than 4000 airports (METAR and TAF reports).

The available stations are represented by yellow and red dots on the map.

Hover mouse over dot to see the name of the station.

Then click to see weather observations and forecasts.

To change the map : click on the green buttons with a black cross to zoom in, on the green button with a dash to zoom out, or on the green arrows for adjacent maps.


METAR-TAF: